sensor_id;sensor_type;location;lat;lon;timestamp;pressure;altitude;pressure_sealevel;temperature;humidity
11038;BME280;5572;49.540;11.932;2023-04-07T00:01:36;97390.06;;;-0.81;100.00
11038;BME280;5572;49.540;11.932;2023-04-07T00:04:02;97385.56;;;-0.87;100.00
11038;BME280;5572;49.540;11.932;2023-04-07T00:06:28;97395.34;;;-0.88;100.00
11038;BME280;5572;49.540;11.932;2023-04-07T00:08:55;97387.78;;;-0.97;100.00
11038;BME280;5572;49.540;11.932;2023-04-07T00:11:22;97400.63;;;-1.00;100.00
11038;BME280;5572;49.540;11.932;2023-04-07T00:13:49;97396.75;;;-0.98;100.00
11038;BME280;5572;49.540;11.932;2023-04-07T00:16:15;97393.44;;;-1.06;100.00
11038;BME280;5572;49.540;11.932;2023-04-07T00:18:43;97390.56;;;-1.11;100.00
11038;BME280;5572;49.540;11.932;2023-04-07T00:21:09;97387.91;;;-1.11;100.00
11038;BME280;5572;49.540;11.932;2023-04-07T00:23:36;97386.28;;;-1.12;100.00
11038;BME280;5572;49.540;11.932;2023-04-07T00:26:02;97390.53;;;-1.18;100.00
11038;BME280;5572;49.540;11.932;2023-04-07T00:28:29;97389.09;;;-1.14;100.00
11038;BME280;5572;49.540;11.932;2023-04-07T00:30:55;97393.00;;;-1.10;100.00
11038;BME280;5572;49.540;11.932;2023-04-07T00:33:21;97382.81;;;-1.06;100.00
11038;BME280;5572;49.540;11.932;2023-04-07T00:35:49;97378.06;;;-1.17;100.00
11038;BME280;5572;49.540;11.932;2023-04-07T00:38:16;97369.06;;;-1.23;100.00
11038;BME280;5572;49.540;11.932;2023-04-07T00:40:42;97372.13;;;-1.19;100.00
11038;BME280;5572;49.540;11.932;2023-04-07T00:43:09;97365.44;;;-1.15;100.00
11038;BME280;5572;49.540;11.932;2023-04-07T00:45:36;97350.97;;;-1.13;100.00
11038;BME280;5572;49.540;11.932;2023-04-07T00:48:03;97358.03;;;-1.26;100.00
11038;BME280;5572;49.540;11.932;2023-04-07T00:50:29;97350.13;;;-1.20;100.00
11038;BME280;5572;49.540;11.932;2023-04-07T00:52:57;97351.38;;;-1.16;100.00
11038;BME280;5572;49.540;11.932;2023-04-07T00:55:24;97345.03;;;-1.21;100.00
11038;BME280;5572;49.540;11.932;2023-04-07T00:57:51;97338.25;;;-1.24;100.00
11038;BME280;5572;49.540;11.932;2023-04-07T01:00:17;97330.91;;;-1.28;100.00
11038;BME280;5572;49.540;11.932;2023-04-07T01:02:49;97330.72;;;-1.27;100.00
11038;BME280;5572;49.540;11.932;2023-04-07T01:05:22;97325.56;;;-1.35;100.00
11038;BME280;5572;49.540;11.932;2023-04-07T01:07:56;97330.09;;;-1.29;100.00
11038;BME280;5572;49.540;11.932;2023-04-07T01:10:30;97326.19;;;-1.33;100.00
11038;BME280;5572;49.540;11.932;2023-04-07T01:13:02;97323.16;;;-1.30;100.00
11038;BME280;5572;49.540;11.932;2023-04-07T01:15:33;97316.38;;;-1.39;100.00
11038;BME280;5572;49.540;11.932;2023-04-07T01:18:05;97324.69;;;-1.48;100.00
11038;BME280;5572;49.540;11.932;2023-04-07T01:20:34;97321.19;;;-1.55;100.00
11038;BME280;5572;49.540;11.932;2023-04-07T01:23:05;97318.66;;;-1.70;100.00
11038;BME280;5572;49.540;11.932;2023-04-07T01:25:53;97322.19;;;-1.56;100.00
11038;BME280;5572;49.540;11.932;2023-04-07T01:31:22;97310.91;;;-1.71;100.00
11038;BME280;5572;49.540;11.932;2023-04-07T01:33:51;97312.81;;;-1.59;100.00
11038;BME280;5572;49.540;11.932;2023-04-07T01:36:18;97308.28;;;-1.65;100.00
11038;BME280;5572;49.540;11.932;2023-04-07T01:38:48;97305.66;;;-1.58;100.00
11038;BME280;5572;49.540;11.932;2023-04-07T01:41:17;97314.75;;;-1.73;100.00
11038;BME280;5572;49.540;11.932;2023-04-07T01:43:44;97305.00;;;-1.73;100.00
11038;BME280;5572;49.540;11.932;2023-04-07T01:46:12;97304.94;;;-1.79;100.00
11038;BME280;5572;49.540;11.932;2023-04-07T01:48:41;97302.97;;;-1.71;100.00
11038;BME280;5572;49.540;11.932;2023-04-07T01:51:09;97291.53;;;-1.72;100.00
11038;BME280;5572;49.540;11.932;2023-04-07T01:53:41;97297.84;;;-1.73;100.00
11038;BME280;5572;49.540;11.932;2023-04-07T01:56:08;97298.44;;;-1.77;100.00
11038;BME280;5572;49.540;11.932;2023-04-07T01:58:35;97304.16;;;-1.80;100.00
11038;BME280;5572;49.540;11.932;2023-04-07T02:01:02;97281.31;;;-1.81;100.00
11038;BME280;5572;49.540;11.932;2023-04-07T02:03:30;97290.44;;;-1.83;100.00
11038;BME280;5572;49.540;11.932;2023-04-07T02:06:05;97279.72;;;-1.75;100.00
11038;BME280;5572;49.540;11.932;2023-04-07T02:08:35;97284.34;;;-1.84;100.00
11038;BME280;5572;49.540;11.932;2023-04-07T02:11:02;97276.13;;;-1.95;100.00
11038;BME280;5572;49.540;11.932;2023-04-07T02:13:33;97278.56;;;-1.94;100.00
11038;BME280;5572;49.540;11.932;2023-04-07T02:16:00;97274.72;;;-1.91;100.00
11038;BME280;5572;49.540;11.932;2023-04-07T02:18:29;97261.31;;;-1.90;100.00
11038;BME280;5572;49.540;11.932;2023-04-07T02:20:57;97263.34;;;-1.85;100.00
11038;BME280;5572;49.540;11.932;2023-04-07T02:23:26;97263.69;;;-1.95;100.00
11038;BME280;5572;49.540;11.932;2023-04-07T02:25:55;97264.28;;;-1.99;100.00
11038;BME280;5572;49.540;11.932;2023-04-07T02:28:22;97260.84;;;-2.00;100.00
11038;BME280;5572;49.540;11.932;2023-04-07T02:30:48;97260.56;;;-2.05;100.00
11038;BME280;5572;49.540;11.932;2023-04-07T02:33:15;97259.16;;;-2.07;100.00
11038;BME280;5572;49.540;11.932;2023-04-07T02:35:42;97261.94;;;-2.15;100.00
11038;BME280;5572;49.540;11.932;2023-04-07T02:38:11;97261.59;;;-2.06;100.00
11038;BME280;5572;49.540;11.932;2023-04-07T02:40:39;97257.13;;;-2.05;100.00
11038;BME280;5572;49.540;11.932;2023-04-07T02:43:05;97253.72;;;-1.93;100.00
11038;BME280;5572;49.540;11.932;2023-04-07T02:45:32;97254.69;;;-2.00;100.00
11038;BME280;5572;49.540;11.932;2023-04-07T02:47:58;97258.94;;;-2.06;100.00
11038;BME280;5572;49.540;11.932;2023-04-07T02:50:25;97252.84;;;-2.06;100.00
11038;BME280;5572;49.540;11.932;2023-04-07T02:52:53;97247.75;;;-2.01;100.00
11038;BME280;5572;49.540;11.932;2023-04-07T02:55:19;97240.06;;;-1.96;100.00
11038;BME280;5572;49.540;11.932;2023-04-07T02:57:47;97235.94;;;-2.05;100.00
11038;BME280;5572;49.540;11.932;2023-04-07T03:00:14;97229.59;;;-2.04;100.00
11038;BME280;5572;49.540;11.932;2023-04-07T03:02:41;97226.56;;;-2.01;100.00
11038;BME280;5572;49.540;11.932;2023-04-07T03:05:08;97213.59;;;-1.96;100.00
11038;BME280;5572;49.540;11.932;2023-04-07T03:07:34;97222.38;;;-2.23;100.00
11038;BME280;5572;49.540;11.932;2023-04-07T03:10:00;97214.31;;;-2.09;100.00
11038;BME280;5572;49.540;11.932;2023-04-07T03:12:27;97209.34;;;-2.25;100.00
11038;BME280;5572;49.540;11.932;2023-04-07T03:14:55;97216.22;;;-2.30;100.00
11038;BME280;5572;49.540;11.932;2023-04-07T03:17:21;97210.13;;;-2.31;100.00
11038;BME280;5572;49.540;11.932;2023-04-07T03:19:48;97209.72;;;-2.28;100.00
11038;BME280;5572;49.540;11.932;2023-04-07T03:22:16;97216.81;;;-2.35;100.00
11038;BME280;5572;49.540;11.932;2023-04-07T03:24:42;97205.88;;;-2.25;100.00
11038;BME280;5572;49.540;11.932;2023-04-07T03:27:08;97206.22;;;-2.35;100.00
11038;BME280;5572;49.540;11.932;2023-04-07T03:29:35;97206.00;;;-2.40;100.00
11038;BME280;5572;49.540;11.932;2023-04-07T03:32:03;97199.81;;;-2.19;100.00
11038;BME280;5572;49.540;11.932;2023-04-07T03:34:29;97192.19;;;-2.35;100.00
11038;BME280;5572;49.540;11.932;2023-04-07T03:36:56;97193.19;;;-2.36;100.00
11038;BME280;5572;49.540;11.932;2023-04-07T03:39:22;97186.63;;;-2.40;100.00
11038;BME280;5572;49.540;11.932;2023-04-07T03:41:49;97182.59;;;-2.36;100.00
11038;BME280;5572;49.540;11.932;2023-04-07T03:44:15;97186.78;;;-2.48;100.00
11038;BME280;5572;49.540;11.932;2023-04-07T03:46:42;97185.25;;;-2.36;100.00
11038;BME280;5572;49.540;11.932;2023-04-07T03:49:10;97185.75;;;-2.54;100.00
11038;BME280;5572;49.540;11.932;2023-04-07T03:51:37;97191.22;;;-2.55;100.00
11038;BME280;5572;49.540;11.932;2023-04-07T03:54:04;97188.75;;;-2.57;100.00
11038;BME280;5572;49.540;11.932;2023-04-07T03:56:30;97188.28;;;-2.66;100.00
11038;BME280;5572;49.540;11.932;2023-04-07T03:58:57;97183.66;;;-2.58;100.00
11038;BME280;5572;49.540;11.932;2023-04-07T04:01:23;97176.06;;;-2.40;100.00
11038;BME280;5572;49.540;11.932;2023-04-07T04:03:50;97162.34;;;-2.50;100.00
11038;BME280;5572;49.540;11.932;2023-04-07T04:06:18;97171.88;;;-2.83;100.00
11038;BME280;5572;49.540;11.932;2023-04-07T04:08:44;97170.13;;;-2.76;100.00
11038;BME280;5572;49.540;11.932;2023-04-07T04:11:11;97159.19;;;-2.66;100.00
11038;BME280;5572;49.540;11.932;2023-04-07T04:13:37;97166.22;;;-2.80;100.00
11038;BME280;5572;49.540;11.932;2023-04-07T04:16:04;97154.03;;;-2.74;100.00
11038;BME280;5572;49.540;11.932;2023-04-07T04:18:31;97144.72;;;-2.70;100.00
11038;BME280;5572;49.540;11.932;2023-04-07T04:20:58;97142.25;;;-2.72;100.00
11038;BME280;5572;49.540;11.932;2023-04-07T04:23:25;97146.50;;;-2.77;100.00
11038;BME280;5572;49.540;11.932;2023-04-07T04:25:52;97130.50;;;-2.63;100.00
11038;BME280;5572;49.540;11.932;2023-04-07T04:28:18;97135.31;;;-2.73;100.00
11038;BME280;5572;49.540;11.932;2023-04-07T04:30:45;97133.69;;;-2.74;100.00
11038;BME280;5572;49.540;11.932;2023-04-07T04:33:12;97127.28;;;-2.65;100.00
11038;BME280;5572;49.540;11.932;2023-04-07T04:35:38;97114.50;;;-2.55;100.00
11038;BME280;5572;49.540;11.932;2023-04-07T04:38:05;97119.94;;;-2.63;100.00
11038;BME280;5572;49.540;11.932;2023-04-07T04:40:33;97102.75;;;-2.46;100.00
11038;BME280;5572;49.540;11.932;2023-04-07T04:42:59;97105.84;;;-2.36;100.00
11038;BME280;5572;49.540;11.932;2023-04-07T04:45:26;97091.41;;;-2.34;100.00
11038;BME280;5572;49.540;11.932;2023-04-07T04:47:52;97104.94;;;-2.56;100.00
11038;BME280;5572;49.540;11.932;2023-04-07T04:50:18;97105.69;;;-2.62;100.00
11038;BME280;5572;49.540;11.932;2023-04-07T04:52:45;97101.75;;;-2.45;100.00
11038;BME280;5572;49.540;11.932;2023-04-07T04:55:11;97108.63;;;-2.44;100.00
11038;BME280;5572;49.540;11.932;2023-04-07T04:57:39;97089.00;;;-2.22;100.00
11038;BME280;5572;49.540;11.932;2023-04-07T05:00:06;97075.56;;;-2.27;100.00
11038;BME280;5572;49.540;11.932;2023-04-07T05:02:34;97088.28;;;-2.50;100.00
11038;BME280;5572;49.540;11.932;2023-04-07T05:05:00;97083.06;;;-2.37;100.00
11038;BME280;5572;49.540;11.932;2023-04-07T05:07:27;97078.09;;;-2.47;100.00
11038;BME280;5572;49.540;11.932;2023-04-07T05:09:53;97074.06;;;-2.43;100.00
11038;BME280;5572;49.540;11.932;2023-04-07T05:12:20;97059.94;;;-2.09;100.00
11038;BME280;5572;49.540;11.932;2023-04-07T05:14:48;97040.69;;;-1.77;100.00
11038;BME280;5572;49.540;11.932;2023-04-07T05:17:14;97036.63;;;-1.61;100.00
11038;BME280;5572;49.540;11.932;2023-04-07T05:19:41;97027.25;;;-1.24;100.00
11038;BME280;5572;49.540;11.932;2023-04-07T05:22:08;97034.38;;;-1.05;100.00
11038;BME280;5572;49.540;11.932;2023-04-07T05:24:34;97006.13;;;-0.11;100.00
11038;BME280;5572;49.540;11.932;2023-04-07T05:27:01;96980.94;;;1.20;100.00
11038;BME280;5572;49.540;11.932;2023-04-07T05:29:27;97000.63;;;0.94;100.00
11038;BME280;5572;49.540;11.932;2023-04-07T05:31:55;96992.09;;;1.64;100.00
11038;BME280;5572;49.540;11.932;2023-04-07T05:34:21;96979.31;;;2.31;100.00
11038;BME280;5572;49.540;11.932;2023-04-07T05:36:48;96978.22;;;2.61;100.00
11038;BME280;5572;49.540;11.932;2023-04-07T05:39:14;96963.06;;;2.96;100.00
11038;BME280;5572;49.540;11.932;2023-04-07T05:41:41;96952.16;;;3.60;100.00
11038;BME280;5572;49.540;11.932;2023-04-07T05:44:07;96953.78;;;3.72;100.00
11038;BME280;5572;49.540;11.932;2023-04-07T05:46:33;96940.09;;;4.24;100.00
11038;BME280;5572;49.540;11.932;2023-04-07T05:49:02;96941.25;;;4.28;100.00
11038;BME280;5572;49.540;11.932;2023-04-07T05:51:28;96935.34;;;3.99;100.00
11038;BME280;5572;49.540;11.932;2023-04-07T05:53:55;96909.72;;;4.80;100.00
11038;BME280;5572;49.540;11.932;2023-04-07T05:56:22;96900.91;;;5.38;100.00
11038;BME280;5572;49.540;11.932;2023-04-07T05:58:48;96887.31;;;5.66;100.00
11038;BME280;5572;49.540;11.932;2023-04-07T06:01:14;96878.09;;;5.57;100.00
11038;BME280;5572;49.540;11.932;2023-04-07T06:03:41;96846.34;;;6.18;100.00
11038;BME280;5572;49.540;11.932;2023-04-07T06:06:09;96865.88;;;4.69;100.00
11038;BME280;5572;49.540;11.932;2023-04-07T06:08:35;96847.44;;;5.27;100.00
11038;BME280;5572;49.540;11.932;2023-04-07T06:11:02;96811.69;;;6.89;100.00
11038;BME280;5572;49.540;11.932;2023-04-07T06:13:28;96769.94;;;7.23;100.00
11038;BME280;5572;49.540;11.932;2023-04-07T06:15:55;96746.56;;;5.95;100.00
11038;BME280;5572;49.540;11.932;2023-04-07T06:18:21;96740.78;;;6.08;100.00
11038;BME280;5572;49.540;11.932;2023-04-07T06:20:48;96682.84;;;7.29;100.00
11038;BME280;5572;49.540;11.932;2023-04-07T06:23:16;96633.66;;;7.49;100.00
11038;BME280;5572;49.540;11.932;2023-04-07T06:25:42;96598.19;;;7.76;100.00
11038;BME280;5572;49.540;11.932;2023-04-07T06:28:09;96537.28;;;8.10;100.00
11038;BME280;5572;49.540;11.932;2023-04-07T06:30:35;96513.78;;;8.36;100.00
11038;BME280;5572;49.540;11.932;2023-04-07T06:33:02;96450.88;;;9.32;100.00
11038;BME280;5572;49.540;11.932;2023-04-07T06:35:28;96438.88;;;7.79;100.00
11038;BME280;5572;49.540;11.932;2023-04-07T06:37:55;96429.81;;;8.72;100.00
11038;BME280;5572;49.540;11.932;2023-04-07T06:40:23;96361.88;;;8.75;100.00
11038;BME280;5572;49.540;11.932;2023-04-07T06:42:50;96298.16;;;9.59;100.00
11038;BME280;5572;49.540;11.932;2023-04-07T06:45:18;96238.97;;;9.26;100.00
11038;BME280;5572;49.540;11.932;2023-04-07T06:47:45;96258.88;;;9.90;100.00
11038;BME280;5572;49.540;11.932;2023-04-07T06:50:12;96211.22;;;9.02;100.00
11038;BME280;5572;49.540;11.932;2023-04-07T06:52:38;96134.25;;;10.60;100.00
11038;BME280;5572;49.540;11.932;2023-04-07T06:55:06;96110.22;;;10.45;100.00
11038;BME280;5572;49.540;11.932;2023-04-07T06:57:34;96052.03;;;9.62;100.00
11038;BME280;5572;49.540;11.932;2023-04-07T07:00:00;96074.56;;;7.85;100.00
11038;BME280;5572;49.540;11.932;2023-04-07T07:02:27;96017.22;;;9.47;100.00
11038;BME280;5572;49.540;11.932;2023-04-07T07:04:53;95896.00;;;10.66;100.00
11038;BME280;5572;49.540;11.932;2023-04-07T07:07:20;95991.75;;;9.21;100.00
11038;BME280;5572;49.540;11.932;2023-04-07T07:09:46;95922.75;;;10.68;100.00
11038;BME280;5572;49.540;11.932;2023-04-07T07:12:13;95980.94;;;10.38;100.00
11038;BME280;5572;49.540;11.932;2023-04-07T07:14:42;95911.94;;;11.55;100.00
11038;BME280;5572;49.540;11.932;2023-04-07T07:17:09;95797.00;;;11.53;100.00
11038;BME280;5572;49.540;11.932;2023-04-07T07:19:35;95833.84;;;9.96;100.00
11038;BME280;5572;49.540;11.932;2023-04-07T07:22:02;96002.38;;;7.69;100.00
11038;BME280;5572;49.540;11.932;2023-04-07T07:24:29;95969.63;;;10.85;100.00
11038;BME280;5572;49.540;11.932;2023-04-07T07:26:58;95901.97;;;9.21;100.00
11038;BME280;5572;49.540;11.932;2023-04-07T07:29:24;95864.47;;;10.40;100.00
11038;BME280;5572;49.540;11.932;2023-04-07T07:31:52;95849.91;;;11.76;100.00
11038;BME280;5572;49.540;11.932;2023-04-07T07:34:19;95677.69;;;12.51;100.00
11038;BME280;5572;49.540;11.932;2023-04-07T07:36:45;95792.06;;;11.33;100.00
11038;BME280;5572;49.540;11.932;2023-04-07T07:39:11;95744.03;;;11.77;100.00
11038;BME280;5572;49.540;11.932;2023-04-07T07:41:38;95690.47;;;12.42;100.00
11038;BME280;5572;49.540;11.932;2023-04-07T07:44:05;95846.31;;;10.54;100.00
11038;BME280;5572;49.540;11.932;2023-04-07T07:46:32;95991.16;;;9.24;100.00
11038;BME280;5572;49.540;11.932;2023-04-07T07:48:59;96122.25;;;9.38;100.00
11038;BME280;5572;49.540;11.932;2023-04-07T07:51:26;96167.94;;;8.18;100.00
11038;BME280;5572;49.540;11.932;2023-04-07T07:53:53;96136.59;;;8.97;100.00
11038;BME280;5572;49.540;11.932;2023-04-07T07:56:19;96190.97;;;7.14;100.00
11038;BME280;5572;49.540;11.932;2023-04-07T07:58:46;96165.53;;;8.17;100.00
11038;BME280;5572;49.540;11.932;2023-04-07T08:01:13;96304.78;;;6.65;100.00
11038;BME280;5572;49.540;11.932;2023-04-07T08:03:39;96163.44;;;9.81;100.00
11038;BME280;5572;49.540;11.932;2023-04-07T08:06:07;96177.66;;;8.43;100.00
11038;BME280;5572;49.540;11.932;2023-04-07T08:08:34;96250.25;;;8.81;100.00
11038;BME280;5572;49.540;11.932;2023-04-07T08:11:00;96306.97;;;7.46;100.00
11038;BME280;5572;49.540;11.932;2023-04-07T08:13:27;96335.97;;;8.46;100.00
11038;BME280;5572;49.540;11.932;2023-04-07T08:15:53;96302.75;;;8.88;100.00
11038;BME280;5572;49.540;11.932;2023-04-07T08:18:20;96274.03;;;8.46;100.00
11038;BME280;5572;49.540;11.932;2023-04-07T08:20:47;96216.84;;;9.65;100.00
11038;BME280;5572;49.540;11.932;2023-04-07T08:23:15;96202.91;;;9.40;100.00
11038;BME280;5572;49.540;11.932;2023-04-07T08:25:41;96178.56;;;9.82;100.00
11038;BME280;5572;49.540;11.932;2023-04-07T08:28:08;96209.28;;;9.67;100.00
11038;BME280;5572;49.540;11.932;2023-04-07T08:30:34;96231.88;;;9.11;100.00
11038;BME280;5572;49.540;11.932;2023-04-07T08:33:02;96221.19;;;9.25;100.00
11038;BME280;5572;49.540;11.932;2023-04-07T08:35:29;96183.59;;;9.10;100.00
11038;BME280;5572;49.540;11.932;2023-04-07T08:37:55;96224.56;;;9.90;100.00
11038;BME280;5572;49.540;11.932;2023-04-07T08:40:23;96219.22;;;9.30;100.00
11038;BME280;5572;49.540;11.932;2023-04-07T08:42:50;96103.19;;;11.11;100.00
11038;BME280;5572;49.540;11.932;2023-04-07T08:45:17;96179.69;;;9.21;100.00
11038;BME280;5572;49.540;11.932;2023-04-07T08:47:45;96138.56;;;10.02;100.00
11038;BME280;5572;49.540;11.932;2023-04-07T08:50:15;96076.50;;;10.56;100.00
11038;BME280;5572;49.540;11.932;2023-04-07T13:03:35;95130.72;;;15.81;100.00
11038;BME280;5572;49.540;11.932;2023-04-07T13:06:03;95251.44;;;16.69;100.00
11038;BME280;5572;49.540;11.932;2023-04-07T13:08:29;95171.38;;;15.55;100.00
11038;BME280;5572;49.540;11.932;2023-04-07T13:10:56;95292.78;;;15.25;100.00
11038;BME280;5572;49.540;11.932;2023-04-07T13:13:23;95325.28;;;16.26;100.00
11038;BME280;5572;49.540;11.932;2023-04-07T13:15:49;95304.25;;;14.91;100.00
11038;BME280;5572;49.540;11.932;2023-04-07T13:18:16;95423.53;;;14.89;100.00
11038;BME280;5572;49.540;11.932;2023-04-07T13:20:44;95530.84;;;14.20;100.00
11038;BME280;5572;49.540;11.932;2023-04-07T13:23:11;95371.19;;;15.62;100.00
11038;BME280;5572;49.540;11.932;2023-04-07T13:25:38;95531.78;;;15.08;100.00
11038;BME280;5572;49.540;11.932;2023-04-07T13:28:04;95469.00;;;14.65;100.00
11038;BME280;5572;49.540;11.932;2023-04-07T13:30:31;95406.03;;;15.84;100.00
11038;BME280;5572;49.540;11.932;2023-04-07T13:32:58;95737.19;;;16.18;100.00
11038;BME280;5572;49.540;11.932;2023-04-07T13:35:24;95368.47;;;16.09;100.00
11038;BME280;5572;49.540;11.932;2023-04-07T13:37:52;95298.03;;;16.98;100.00
11038;BME280;5572;49.540;11.932;2023-04-07T13:40:19;95281.38;;;16.46;100.00
11038;BME280;5572;49.540;11.932;2023-04-07T13:42:45;95346.06;;;16.65;100.00
11038;BME280;5572;49.540;11.932;2023-04-07T13:45:12;95411.59;;;16.49;100.00
11038;BME280;5572;49.540;11.932;2023-04-07T13:47:38;95412.03;;;15.47;100.00
11038;BME280;5572;49.540;11.932;2023-04-07T13:50:06;95366.91;;;15.92;100.00
11038;BME280;5572;49.540;11.932;2023-04-07T13:52:32;95584.81;;;16.01;100.00
11038;BME280;5572;49.540;11.932;2023-04-07T13:55:01;95769.28;;;15.61;100.00
11038;BME280;5572;49.540;11.932;2023-04-07T13:57:29;95697.84;;;15.91;100.00
11038;BME280;5572;49.540;11.932;2023-04-07T13:59:56;95631.03;;;16.79;100.00
11038;BME280;5572;49.540;11.932;2023-04-07T14:02:22;95788.91;;;16.14;100.00
11038;BME280;5572;49.540;11.932;2023-04-07T14:04:50;95787.09;;;15.47;100.00
11038;BME280;5572;49.540;11.932;2023-04-07T14:07:17;95699.75;;;16.15;100.00
11038;BME280;5572;49.540;11.932;2023-04-07T14:09:43;95594.25;;;15.52;100.00
11038;BME280;5572;49.540;11.932;2023-04-07T14:12:11;95557.97;;;15.75;100.00
11038;BME280;5572;49.540;11.932;2023-04-07T14:14:38;95789.16;;;15.61;100.00
11038;BME280;5572;49.540;11.932;2023-04-07T14:17:05;95959.34;;;16.08;100.00
11038;BME280;5572;49.540;11.932;2023-04-07T14:19:31;95705.28;;;15.67;100.00
11038;BME280;5572;49.540;11.932;2023-04-07T14:21:59;95664.69;;;14.94;100.00
11038;BME280;5572;49.540;11.932;2023-04-07T14:24:25;95850.09;;;15.45;100.00
11038;BME280;5572;49.540;11.932;2023-04-07T14:26:52;95796.28;;;15.10;100.00
11038;BME280;5572;49.540;11.932;2023-04-07T14:29:20;95787.22;;;15.18;100.00
11038;BME280;5572;49.540;11.932;2023-04-07T14:31:47;95571.63;;;15.75;100.00
11038;BME280;5572;49.540;11.932;2023-04-07T14:34:15;95647.41;;;15.46;100.00
11038;BME280;5572;49.540;11.932;2023-04-07T14:36:51;95687.25;;;13.89;100.00
11038;BME280;5572;49.540;11.932;2023-04-07T14:39:18;95899.91;;;14.64;100.00
11038;BME280;5572;49.540;11.932;2023-04-07T14:41:45;95600.16;;;15.18;100.00
11038;BME280;5572;49.540;11.932;2023-04-07T14:44:12;96088.09;;;14.66;100.00
11038;BME280;5572;49.540;11.932;2023-04-07T14:46:40;95841.75;;;14.57;100.00
11038;BME280;5572;49.540;11.932;2023-04-07T14:49:07;95537.22;;;15.20;100.00
11038;BME280;5572;49.540;11.932;2023-04-07T14:51:33;95432.69;;;15.63;100.00
11038;BME280;5572;49.540;11.932;2023-04-07T14:54:00;95516.81;;;14.54;100.00
11038;BME280;5572;49.540;11.932;2023-04-07T14:56:26;95802.25;;;14.71;100.00
11038;BME280;5572;49.540;11.932;2023-04-07T14:58:53;95608.97;;;14.67;100.00
11038;BME280;5572;49.540;11.932;2023-04-07T15:01:19;95366.63;;;15.66;100.00
11038;BME280;5572;49.540;11.932;2023-04-07T15:03:47;95503.28;;;15.68;100.00
11038;BME280;5572;49.540;11.932;2023-04-07T15:06:13;95545.81;;;15.46;100.00
11038;BME280;5572;49.540;11.932;2023-04-07T15:08:41;95713.72;;;15.18;100.00
11038;BME280;5572;49.540;11.932;2023-04-07T15:11:08;95685.94;;;15.72;100.00
11038;BME280;5572;49.540;11.932;2023-04-07T15:13:35;95670.88;;;15.39;100.00
11038;BME280;5572;49.540;11.932;2023-04-07T15:16:05;95652.56;;;15.75;100.00
11038;BME280;5572;49.540;11.932;2023-04-07T15:18:32;95616.84;;;15.05;100.00
11038;BME280;5572;49.540;11.932;2023-04-07T15:21:00;95701.22;;;15.05;100.00
11038;BME280;5572;49.540;11.932;2023-04-07T15:23:26;95614.41;;;15.87;100.00
11038;BME280;5572;49.540;11.932;2023-04-07T15:25:53;95784.16;;;14.34;100.00
11038;BME280;5572;49.540;11.932;2023-04-07T15:28:21;96018.44;;;14.73;100.00
11038;BME280;5572;49.540;11.932;2023-04-07T15:30:48;95780.81;;;14.08;100.00
11038;BME280;5572;49.540;11.932;2023-04-07T15:33:14;95863.47;;;14.36;100.00
11038;BME280;5572;49.540;11.932;2023-04-07T15:35:41;95859.88;;;15.26;100.00
11038;BME280;5572;49.540;11.932;2023-04-07T15:38:10;95852.88;;;15.04;100.00
11038;BME280;5572;49.540;11.932;2023-04-07T15:40:36;95860.75;;;14.97;100.00
11038;BME280;5572;49.540;11.932;2023-04-07T15:43:03;95868.88;;;14.65;100.00
11038;BME280;5572;49.540;11.932;2023-04-07T15:45:31;95838.09;;;14.53;100.00
11038;BME280;5572;49.540;11.932;2023-04-07T15:47:57;96024.84;;;15.27;100.00
11038;BME280;5572;49.540;11.932;2023-04-07T15:50:23;96212.44;;;14.49;100.00
11038;BME280;5572;49.540;11.932;2023-04-07T15:52:51;96227.66;;;14.50;100.00
11038;BME280;5572;49.540;11.932;2023-04-07T15:55:19;95838.13;;;15.05;100.00
11038;BME280;5572;49.540;11.932;2023-04-07T15:57:45;96035.38;;;14.50;100.00
11038;BME280;5572;49.540;11.932;2023-04-07T16:00:12;96187.19;;;14.06;100.00
11038;BME280;5572;49.540;11.932;2023-04-07T16:02:39;96173.63;;;14.14;100.00
11038;BME280;5572;49.540;11.932;2023-04-07T16:05:06;96238.50;;;13.99;100.00
11038;BME280;5572;49.540;11.932;2023-04-07T16:07:33;96211.66;;;13.97;100.00
11038;BME280;5572;49.540;11.932;2023-04-07T16:09:59;95990.00;;;13.71;100.00
11038;BME280;5572;49.540;11.932;2023-04-07T16:12:28;96032.16;;;13.94;100.00
11038;BME280;5572;49.540;11.932;2023-04-07T16:14:54;96277.59;;;13.73;100.00
11038;BME280;5572;49.540;11.932;2023-04-07T16:17:21;96093.06;;;13.68;100.00
11038;BME280;5572;49.540;11.932;2023-04-07T16:19:47;96182.50;;;13.47;100.00
11038;BME280;5572;49.540;11.932;2023-04-07T16:22:14;95919.28;;;13.34;100.00
11038;BME280;5572;49.540;11.932;2023-04-07T16:24:40;95782.22;;;13.11;100.00
11038;BME280;5572;49.540;11.932;2023-04-07T16:27:07;95780.03;;;12.96;100.00
11038;BME280;5572;49.540;11.932;2023-04-07T16:29:34;95806.22;;;12.92;100.00
11038;BME280;5572;49.540;11.932;2023-04-07T16:32:01;95723.03;;;13.04;100.00
11038;BME280;5572;49.540;11.932;2023-04-07T16:34:28;95852.44;;;13.21;100.00
11038;BME280;5572;49.540;11.932;2023-04-07T16:36:55;96197.41;;;13.19;100.00
11038;BME280;5572;49.540;11.932;2023-04-07T16:39:21;96242.59;;;13.15;100.00
11038;BME280;5572;49.540;11.932;2023-04-07T16:41:48;96226.75;;;13.09;100.00
11038;BME280;5572;49.540;11.932;2023-04-07T16:44:14;96120.97;;;12.87;100.00
11038;BME280;5572;49.540;11.932;2023-04-07T16:46:42;96111.53;;;12.76;100.00
11038;BME280;5572;49.540;11.932;2023-04-07T16:49:09;96262.34;;;12.86;100.00
11038;BME280;5572;49.540;11.932;2023-04-07T16:51:35;96429.97;;;13.10;100.00
11038;BME280;5572;49.540;11.932;2023-04-07T16:54:02;96575.53;;;13.06;100.00
11038;BME280;5572;49.540;11.932;2023-04-07T16:56:28;96551.31;;;12.70;100.00
11038;BME280;5572;49.540;11.932;2023-04-07T16:58:55;96557.94;;;12.77;100.00
11038;BME280;5572;49.540;11.932;2023-04-07T17:01:21;96573.09;;;12.78;100.00
11038;BME280;5572;49.540;11.932;2023-04-07T17:03:49;96593.41;;;12.67;100.00
11038;BME280;5572;49.540;11.932;2023-04-07T17:06:16;96689.38;;;12.39;100.00